»·PEaware :: UAL1108 KDEN-KSAN

UAL1108 :: KDEN-KSAN

FLIGHT INFORMATION

Flight Status: Arrived
Operator:
United Airlines
More flights by this operator :: More flights under this callsign
Pilot: Lauren G. (5641)
Aircraft: BOEING 737-800
(B738)
More flights by this aircraft type
Origin: KDEN Denver Intl
United States
Destination: KSAN San Diego Intl-Lindbergh
United States
More flights between these airports :: More routes between these airports
Route: BAYLR6 TEHRU PLNDL Q86 TTRUE LUCKI1
File this flight plan on PilotEdge
Remarks:
Altitude:
(Current/Filed)
40,000ft
Speed:
(Current/Filed)
456kts
Departed: 04-Apr-20 10:15 AM
Arrived: 04-Apr-20 12:20 PM
Distance/Time
Traveled:
740nm/2:05
Distance/Time
To Go:
Arrived

Flight Plot

Page will automatically refresh every two minutes.

Flight plan parsing failed; only flown route is shown


Map Options




Map Legend


Flown Route
Filed Route
Departure Airport
Arrival Airport
Navaid (VOR, NDB)
Fix

Horizontal Profiles

Position Reports

Time Latitude Longitude Heading Altitude Ground
Speed
04-Apr-20 09:17 39.858001 -104.676246 0 5445ft 0kts
04-Apr-20 09:18 39.858001 -104.676246 0 5445ft 0kts
04-Apr-20 09:19 39.858001 -104.676246 0 5445ft 0kts
04-Apr-20 09:20 39.858001 -104.676246 0 5445ft 0kts
04-Apr-20 09:21 39.858001 -104.676246 0 5445ft 0kts
04-Apr-20 09:22 39.858001 -104.676246 0 5445ft 0kts
04-Apr-20 09:23 39.858001 -104.676246 0 5445ft 0kts
04-Apr-20 09:24 39.858001 -104.676246 0 5445ft 0kts
04-Apr-20 09:25 39.858001 -104.676246 0 5445ft 0kts
04-Apr-20 09:26 39.858001 -104.676246 0 5445ft 0kts
04-Apr-20 09:27 39.858001 -104.676246 0 5445ft 0kts
04-Apr-20 09:28 39.858001 -104.676246 0 5445ft 0kts
04-Apr-20 09:29 39.858001 -104.676246 0 5445ft 0kts
04-Apr-20 09:30 39.858001 -104.676246 0 5445ft 0kts
04-Apr-20 09:31 39.858001 -104.676246 0 5445ft 0kts
04-Apr-20 09:32 39.858001 -104.676246 0 5445ft 0kts
04-Apr-20 09:33 39.858001 -104.676246 0 5445ft 0kts
04-Apr-20 09:34 39.858001 -104.676246 0 5445ft 0kts
04-Apr-20 09:35 39.858001 -104.676246 0 5445ft 0kts
04-Apr-20 09:36 39.858001 -104.676246 0 5445ft 0kts
04-Apr-20 09:37 39.858001 -104.676246 0 5445ft 0kts
04-Apr-20 09:38 39.858001 -104.676246 0 5445ft 0kts
04-Apr-20 09:39 39.858001 -104.676246 0 5445ft 0kts
04-Apr-20 09:40 39.858001 -104.676246 0 5445ft 0kts
04-Apr-20 09:41 39.858001 -104.676246 0 5445ft 0kts
04-Apr-20 09:42 39.858001 -104.676246 0 5445ft 0kts
04-Apr-20 09:43 39.858001 -104.676246 0 5445ft 0kts
04-Apr-20 09:44 39.858001 -104.676246 0 5445ft 0kts
04-Apr-20 09:45 39.858001 -104.676246 0 5445ft 0kts
04-Apr-20 09:46 39.858001 -104.676246 0 5445ft 0kts
04-Apr-20 09:47 39.858001 -104.676246 0 5445ft 0kts
04-Apr-20 09:48 39.858001 -104.676246 0 5445ft 0kts
04-Apr-20 09:49 39.858001 -104.676246 0 5445ft 0kts
04-Apr-20 09:50 39.858001 -104.676246 0 5445ft 0kts
04-Apr-20 09:51 39.858001 -104.676246 0 5445ft 0kts
04-Apr-20 09:52 39.858001 -104.676246 0 5445ft 0kts
04-Apr-20 09:53 39.858001 -104.676246 0 5445ft 0kts
04-Apr-20 09:55 39.858001 -104.676246 0 5445ft 0kts
04-Apr-20 09:56 39.858001 -104.676246 0 5445ft 0kts
04-Apr-20 09:57 39.858001 -104.676246 0 5445ft 0kts
04-Apr-20 09:58 39.858001 -104.676246 0 5445ft 0kts
04-Apr-20 09:59 39.858000 -104.676246 0 5445ft 0kts
04-Apr-20 10:00 39.857524 -104.676176 326 5445ft 2kts
04-Apr-20 10:01 39.857329 -104.675651 268 5445ft 0kts
04-Apr-20 10:02 39.857329 -104.675651 268 5445ft 0kts
04-Apr-20 10:03 39.857329 -104.675651 268 5445ft 0kts
04-Apr-20 10:04 39.857329 -104.675651 268 5445ft 0kts
04-Apr-20 10:05 39.857320 -104.676134 268 5445ft 10kts
04-Apr-20 10:06 39.856688 -104.681096 271 5445ft 10kts
04-Apr-20 10:07 39.856017 -104.683984 182 5445ft 12kts
04-Apr-20 10:08 39.850417 -104.684045 181 5445ft 21kts
04-Apr-20 10:09 39.846024 -104.684064 180 5445ft 26kts
04-Apr-20 10:10 39.842099 -104.684150 181 5445ft 0kts
04-Apr-20 10:10 39.841894 -104.684156 181 5445ft 0kts
04-Apr-20 10:12 39.841894 -104.684156 181 5445ft 0kts
04-Apr-20 10:13 39.841894 -104.684156 181 5445ft 0kts
04-Apr-20 10:13 39.841894 -104.684156 181 5445ft 0kts
04-Apr-20 10:14 39.840720 -104.693914 270 5445ft 115kts
04-Apr-20 10:16 39.835408 -104.765929 234 6785ft 221kts
04-Apr-20 10:17 39.800039 -104.842479 241 8920ft 284kts
04-Apr-20 10:17 39.771261 -104.919045 251 11281ft 304kts
04-Apr-20 10:18 39.747637 -105.027980 250 13655ft 340kts
04-Apr-20 10:19 39.712557 -105.142075 250 17045ft 345kts
04-Apr-20 10:20 39.676637 -105.259373 249 19813ft 358kts
04-Apr-20 10:21 39.635210 -105.379497 247 22303ft 370kts
04-Apr-20 10:22 39.592402 -105.503403 248 24541ft 380kts
04-Apr-20 10:23 39.550107 -105.631618 251 26418ft 392kts
04-Apr-20 10:24 39.512926 -105.764743 251 28174ft 402kts
04-Apr-20 10:25 39.474748 -105.902359 251 29904ft 408kts
04-Apr-20 10:26 39.436821 -106.038500 252 32095ft 398kts
04-Apr-20 10:27 39.399689 -106.171178 252 33990ft 392kts
04-Apr-20 10:28 39.362454 -106.302073 252 35776ft 386kts
04-Apr-20 10:29 39.326178 -106.429735 252 37329ft 381kts
04-Apr-20 10:30 39.290560 -106.554978 252 38553ft 381kts
04-Apr-20 10:31 39.251994 -106.679984 245 39727ft 381kts
04-Apr-20 10:32 39.198579 -106.791657 237 40013ft 398kts
04-Apr-20 10:33 39.134246 -106.898291 236 40010ft 391kts
04-Apr-20 10:34 39.073147 -106.998245 236 40009ft 394kts
04-Apr-20 10:35 39.009445 -107.102022 236 40008ft 393kts
04-Apr-20 10:36 38.944990 -107.206677 236 40009ft 393kts
04-Apr-20 10:37 38.879087 -107.313336 236 40008ft 393kts
04-Apr-20 10:38 38.819112 -107.410091 236 40009ft 393kts
04-Apr-20 10:39 38.758634 -107.507357 236 40009ft 391kts
04-Apr-20 10:40 38.694986 -107.609419 236 40009ft 391kts
04-Apr-20 10:41 38.639920 -107.697381 235 40008ft 391kts
04-Apr-20 10:42 38.573037 -107.803831 235 40009ft 390kts
04-Apr-20 10:43 38.506123 -107.910106 236 40009ft 391kts
04-Apr-20 10:44 38.439610 -108.015421 236 40009ft 390kts
04-Apr-20 10:45 38.372315 -108.121651 236 40009ft 390kts
04-Apr-20 10:46 38.305681 -108.226505 236 40009ft 390kts
04-Apr-20 10:47 38.239646 -108.330087 236 40009ft 390kts
04-Apr-20 10:48 38.173709 -108.433193 236 40008ft 390kts
04-Apr-20 10:49 38.108931 -108.534177 236 40008ft 390kts
04-Apr-20 10:50 38.039395 -108.642250 236 40009ft 391kts
04-Apr-20 10:51 37.973088 -108.744799 235 40009ft 391kts
04-Apr-20 10:52 37.905148 -108.849585 235 40008ft 390kts
04-Apr-20 10:53 37.837461 -108.953736 235 40009ft 390kts
04-Apr-20 10:54 37.769081 -109.058612 236 40009ft 390kts
04-Apr-20 10:55 37.700380 -109.163653 236 40009ft 390kts
04-Apr-20 10:56 37.631620 -109.268405 236 40009ft 389kts
04-Apr-20 10:57 37.562425 -109.373492 236 40009ft 390kts
04-Apr-20 10:58 37.493353 -109.478050 235 40009ft 389kts
04-Apr-20 10:59 37.424326 -109.582208 235 40009ft 389kts
04-Apr-20 11:00 37.356039 -109.684888 235 40010ft 390kts
04-Apr-20 11:01 37.288322 -109.786284 235 40008ft 389kts
04-Apr-20 11:02 37.220365 -109.887822 235 40008ft 390kts
04-Apr-20 11:03 37.152481 -109.989009 235 40009ft 391kts
04-Apr-20 11:04 37.082750 -110.092608 235 40009ft 390kts
04-Apr-20 11:05 37.012899 -110.196057 234 40008ft 390kts
04-Apr-20 11:06 36.942731 -110.299680 234 40009ft 391kts
04-Apr-20 11:07 36.883838 -110.386374 234 40010ft 390kts
04-Apr-20 11:08 36.811801 -110.492137 234 40009ft 391kts
04-Apr-20 11:09 36.742088 -110.594122 234 40009ft 389kts
04-Apr-20 11:10 36.672442 -110.695663 234 40009ft 392kts
04-Apr-20 11:11 36.601810 -110.798259 234 40009ft 391kts
04-Apr-20 11:12 36.531630 -110.899977 233 40009ft 391kts
04-Apr-20 11:13 36.460961 -111.002125 233 40009ft 391kts
04-Apr-20 11:14 36.389914 -111.104510 233 40009ft 391kts
04-Apr-20 11:15 36.319114 -111.206249 233 40008ft 392kts
04-Apr-20 11:16 36.248562 -111.307312 233 40009ft 393kts
04-Apr-20 11:17 36.177404 -111.408922 233 40009ft 392kts
04-Apr-20 11:18 36.106146 -111.510360 233 40009ft 393kts
04-Apr-20 11:19 36.034358 -111.612275 233 40009ft 393kts
04-Apr-20 11:20 35.963012 -111.713161 232 40009ft 394kts
04-Apr-20 11:21 35.891022 -111.814638 232 40010ft 394kts
04-Apr-20 11:22 35.824350 -111.919324 239 40008ft 390kts
04-Apr-20 11:23 35.768854 -112.033494 242 40008ft 390kts
04-Apr-20 11:24 35.715232 -112.149490 242 40009ft 391kts
04-Apr-20 11:25 35.661103 -112.264142 242 40009ft 390kts
04-Apr-20 11:26 35.606806 -112.379457 242 40009ft 391kts
04-Apr-20 11:27 35.553270 -112.494039 242 40009ft 392kts
04-Apr-20 11:28 35.498837 -112.610726 242 40009ft 393kts
04-Apr-20 11:29 35.444825 -112.726036 241 40008ft 393kts
04-Apr-20 11:30 35.390644 -112.841369 241 40008ft 394kts
04-Apr-20 11:31 35.335825 -112.957760 241 40009ft 395kts
04-Apr-20 11:32 35.281380 -113.073003 241 40008ft 396kts
04-Apr-20 11:33 35.226195 -113.189183 241 40009ft 396kts
04-Apr-20 11:34 35.170477 -113.305084 241 40008ft 397kts
04-Apr-20 11:35 35.114972 -113.421052 241 40008ft 397kts
04-Apr-20 11:36 35.059322 -113.537177 241 40009ft 398kts
04-Apr-20 11:37 35.004742 -113.650754 240 40009ft 398kts
04-Apr-20 11:38 34.949194 -113.765796 240 40009ft 398kts
04-Apr-20 11:39 34.893140 -113.881626 240 40010ft 399kts
04-Apr-20 11:40 34.846701 -113.975340 239 40008ft 401kts
04-Apr-20 11:41 34.783834 -114.095989 239 40009ft 402kts
04-Apr-20 11:42 34.724881 -114.209835 239 40009ft 402kts
04-Apr-20 11:43 34.665762 -114.323945 239 39969ft 404kts
04-Apr-20 11:44 34.598929 -114.432058 231 39871ft 403kts
04-Apr-20 11:45 34.525254 -114.534868 230 39871ft 404kts
04-Apr-20 11:46 34.451469 -114.636917 230 39872ft 404kts
04-Apr-20 11:47 34.378606 -114.737207 230 39658ft 409kts
04-Apr-20 11:48 34.303001 -114.840565 230 38200ft 412kts
04-Apr-20 11:49 34.227364 -114.943679 230 36499ft 410kts
04-Apr-20 11:50 34.151822 -115.046599 229 35001ft 414kts
04-Apr-20 11:51 34.074855 -115.151212 229 33503ft 417kts
04-Apr-20 11:52 33.998886 -115.254172 229 32014ft 424kts
04-Apr-20 11:53 33.921896 -115.358088 229 30521ft 411kts
04-Apr-20 11:54 33.848875 -115.456756 229 29065ft 404kts
04-Apr-20 11:55 33.775734 -115.555475 230 27573ft 395kts
04-Apr-20 11:56 33.704026 -115.652034 229 26232ft 402kts
04-Apr-20 11:57 33.636312 -115.741329 230 25475ft 398kts
04-Apr-20 11:58 33.571579 -115.847351 236 24270ft 388kts
04-Apr-20 11:59 33.510330 -115.952911 236 22929ft 383kts
04-Apr-20 12:00 33.450314 -116.056287 236 21539ft 372kts
04-Apr-20 12:02 33.391880 -116.156923 236 20238ft 364kts
04-Apr-20 12:03 33.329297 -116.249426 220 18779ft 358kts
04-Apr-20 12:04 33.245323 -116.304207 209 17065ft 330kts
04-Apr-20 12:05 33.164967 -116.351172 208 15449ft 323kts
04-Apr-20 12:06 33.084962 -116.397942 208 14008ft 317kts
04-Apr-20 12:07 33.007127 -116.444733 215 12605ft 309kts
04-Apr-20 12:08 32.941846 -116.508427 222 11328ft 292kts
04-Apr-20 12:09 32.882141 -116.568770 222 10239ft 279kts
04-Apr-20 12:10 32.823153 -116.628143 222 9037ft 276kts
04-Apr-20 12:11 32.775054 -116.679547 232 8017ft 270kts
04-Apr-20 12:12 32.738072 -116.753469 241 6874ft 257kts
04-Apr-20 12:13 32.706925 -116.820403 246 5742ft 218kts
04-Apr-20 12:14 32.685825 -116.887769 251 4749ft 216kts
04-Apr-20 12:15 32.676633 -116.956586 282 3847ft 214kts
04-Apr-20 12:16 32.692462 -117.020854 285 2892ft 180kts
04-Apr-20 12:17 32.705174 -117.072876 284 2012ft 156kts
04-Apr-20 12:17 32.714627 -117.110482 281 1516ft 145kts
04-Apr-20 12:19 32.727598 -117.164889 282 384ft 143kts
04-Apr-20 12:20 32.734383 -117.194419 249 28ft 19kts

Navigation Log

Ident Type
Flight plan parsing failed, navigation log unavailable